createdAt,value
2022-11-23T00:10:21.204Z,81.5
2022-11-23T00:22:21.300Z,82.2
2022-11-23T00:34:21.208Z,82.1
2022-11-23T00:46:21.519Z,82.1
2022-11-23T00:58:21.318Z,82.3
2022-11-23T01:10:21.289Z,82.6
2022-11-23T01:22:21.244Z,82.8
2022-11-23T01:34:21.195Z,83.0
2022-11-23T01:46:21.619Z,83.5
2022-11-23T01:58:21.297Z,83.2
2022-11-23T02:10:21.246Z,83.5
2022-11-23T02:22:21.310Z,85.0
2022-11-23T02:34:21.281Z,85.0
2022-11-23T02:46:21.521Z,85.4
2022-11-23T02:58:21.249Z,85.6
2022-11-23T03:10:21.272Z,85.5
2022-11-23T03:22:21.288Z,85.5
2022-11-23T03:34:21.201Z,85.6
2022-11-23T03:46:21.705Z,85.9
2022-11-23T03:58:21.301Z,85.8
2022-11-23T04:10:21.283Z,85.3
2022-11-23T04:22:21.237Z,85.1
2022-11-23T04:34:21.196Z,84.8
2022-11-23T04:46:21.746Z,84.9
2022-11-23T04:58:21.278Z,85.2
2022-11-23T05:10:21.293Z,85.1
2022-11-23T05:22:21.285Z,85.5
2022-11-23T05:34:21.192Z,86.0
2022-11-23T05:46:21.281Z,86.8
2022-11-23T05:58:21.305Z,86.5
2022-11-23T06:10:21.279Z,86.3
2022-11-23T06:22:21.190Z,85.8
2022-11-23T06:34:21.485Z,85.0
2022-11-23T06:46:21.244Z,85.2
2022-11-23T06:58:21.290Z,85.4
2022-11-23T07:10:21.303Z,85.7
2022-11-23T07:22:21.198Z,84.0
2022-11-23T07:34:21.257Z,83.5
2022-11-23T07:46:21.198Z,83.6
2022-11-23T07:58:21.194Z,84.1
2022-11-23T08:10:21.191Z,83.5
2022-11-23T08:22:21.237Z,83.7
2022-11-23T08:34:21.191Z,82.1
2022-11-23T08:46:21.260Z,81.1
2022-11-23T08:58:21.292Z,80.9
2022-11-23T09:10:21.306Z,80.0
2022-11-23T09:22:21.208Z,79.5
2022-11-23T09:34:21.191Z,79.0
2022-11-23T09:46:21.310Z,78.2
2022-11-23T09:58:21.283Z,78.2
2022-11-23T10:10:21.197Z,77.6
2022-11-23T10:22:21.289Z,76.3
2022-11-23T10:34:21.200Z,76.5
2022-11-23T10:46:21.690Z,74.7
2022-11-23T10:58:21.309Z,74.2
2022-11-23T11:10:21.311Z,72.9
2022-11-23T11:22:21.320Z,71.1
2022-11-23T11:34:21.205Z,70.7
2022-11-23T11:46:29.758Z,70.0
2022-11-23T11:58:21.303Z,68.1
2022-11-23T12:10:21.193Z,68.7
2022-11-23T12:22:21.206Z,68.1
2022-11-23T12:34:21.201Z,69.4
2022-11-23T12:46:21.292Z,69.3
2022-11-23T12:58:21.190Z,68.0
2022-11-23T13:10:21.287Z,65.7
2022-11-23T13:22:21.273Z,67.2
2022-11-23T13:34:21.208Z,67.7
2022-11-23T13:46:21.406Z,67.4
2022-11-23T13:58:21.279Z,66.9
2022-11-23T14:10:21.307Z,68.2
2022-11-23T14:22:21.192Z,72.4
2022-11-23T14:34:21.254Z,73.7
2022-11-23T14:46:21.387Z,75.4
2022-11-23T14:58:21.304Z,75.9
2022-11-23T15:10:21.192Z,76.0
2022-11-23T15:22:21.241Z,76.4
2022-11-23T15:34:21.283Z,76.0
2022-11-23T15:46:21.286Z,74.0
2022-11-23T15:58:21.195Z,72.9
2022-11-23T16:10:21.194Z,72.5
2022-11-23T16:22:21.196Z,72.8
2022-11-23T16:34:21.198Z,78.3
2022-11-23T16:46:21.277Z,84.4
2022-11-23T16:58:21.249Z,86.9
2022-11-23T17:10:21.209Z,88.9
2022-11-23T17:22:21.198Z,86.5
2022-11-23T17:34:21.305Z,89.3
2022-11-23T17:46:21.337Z,89.5
2022-11-23T17:58:21.304Z,90.7
2022-11-23T18:10:21.310Z,91.5
2022-11-23T18:22:21.298Z,92.2
2022-11-23T18:34:21.200Z,92.7
2022-11-23T18:46:21.327Z,93.6
2022-11-23T18:58:21.291Z,93.4
2022-11-23T19:10:21.189Z,93.7
2022-11-23T19:22:21.315Z,93.4
2022-11-23T19:34:21.310Z,93.2
2022-11-23T19:46:21.397Z,93.9
2022-11-23T19:58:21.245Z,94.4
2022-11-23T20:10:21.611Z,94.5
2022-11-23T20:22:21.306Z,95.1
2022-11-23T20:34:23.022Z,95.3
2022-11-23T20:46:45.755Z,95.6
2022-11-23T20:58:21.194Z,95.8
2022-11-23T21:10:21.319Z,96.0
2022-11-23T21:22:21.223Z,96.3
2022-11-23T21:34:21.200Z,96.3
2022-11-23T21:46:21.342Z,96.4
2022-11-23T21:58:21.263Z,96.6
2022-11-23T22:10:21.283Z,96.6
2022-11-23T22:22:21.252Z,96.4
2022-11-23T22:34:21.298Z,96.5
2022-11-23T22:46:21.241Z,96.3
2022-11-23T22:58:21.290Z,96.0
2022-11-23T23:10:21.248Z,95.4
2022-11-23T23:22:21.241Z,95.4
2022-11-23T23:34:21.210Z,95.0
2022-11-23T23:46:21.246Z,94.6
2022-11-23T23:58:21.304Z,94.5
